MKV weather

Mount Cavenagh Airport
Northern Territory, Australia

Public forecast

Using degrees Celsius for public forecast. Weather courtesy of forecast.io.

METAR (pilot weather report)

Closest report is Ayers Rock Connellan Airport, 129.2 nm (239.4 km) WNW. Retrieved 2019/03/26 16:00 UTC (29 minutes ago):

YAYE 261600Z AUTO 13006KT 9999 // NCD 19/04 Q1019

TAF (pilot weather forecast)

Closest forecast is Alice Springs Airport, 135.2 nm (250.4 km) NNE. Retrieved 2019/03/26 12:00 UTC (4 hours ago):

TAF YBAS 261122Z 2612/2712 14010KT CAVOK FM262300 14014KT CAVOK FM271100 12008KT CAVOK